createdAt,value
2017-10-27T00:01:25.556Z,84.35
2017-10-27T00:03:53.879Z,84.36
2017-10-27T00:06:21.796Z,84.54
2017-10-27T00:08:49.701Z,84.82
2017-10-27T00:11:17.621Z,84.59
2017-10-27T00:13:45.620Z,84.74
2017-10-27T00:16:13.994Z,84.88
2017-10-27T00:18:42.332Z,84.96
2017-10-27T00:21:10.262Z,84.88
2017-10-27T00:23:38.178Z,84.96
2017-10-27T00:26:06.258Z,85.23
2017-10-27T00:28:34.174Z,85.12
2017-10-27T00:31:02.106Z,85.28
2017-10-27T00:33:30.417Z,85.10
2017-10-27T00:35:58.338Z,85.35
2017-10-27T00:38:26.266Z,85.09
2017-10-27T00:40:54.272Z,85.13
2017-10-27T00:43:22.236Z,84.94
2017-10-27T00:45:50.172Z,84.77
2017-10-27T00:48:18.094Z,84.48
2017-10-27T00:50:46.455Z,84.21
2017-10-27T00:53:14.431Z,83.98
2017-10-27T00:55:42.357Z,83.48
2017-10-27T00:58:10.269Z,83.66
2017-10-27T01:00:38.216Z,83.90
2017-10-27T01:03:06.151Z,83.81
2017-10-27T01:05:34.077Z,83.86
2017-10-27T01:08:01.997Z,83.82
2017-10-27T01:10:30.005Z,83.84
2017-10-27T01:12:57.976Z,83.96
2017-10-27T01:15:25.902Z,84.23
2017-10-27T01:17:53.826Z,84.39
2017-10-27T01:20:22.149Z,84.27
2017-10-27T01:22:50.065Z,84.07
2017-10-27T01:25:18.405Z,83.74
2017-10-27T01:27:46.407Z,83.38
2017-10-27T01:30:14.321Z,83.14
2017-10-27T01:32:42.240Z,82.79
2017-10-27T01:35:10.173Z,82.80
2017-10-27T01:37:38.090Z,82.85
2017-10-27T01:40:06.417Z,83.19
2017-10-27T01:42:34.349Z,83.43
2017-10-27T01:45:02.278Z,83.16
2017-10-27T01:47:30.232Z,83.13
2017-10-27T01:49:58.156Z,83.22
2017-10-27T01:52:26.076Z,82.83
2017-10-27T01:54:54.000Z,82.61
2017-10-27T01:57:22.049Z,82.58
2017-10-27T01:59:50.366Z,82.29
2017-10-27T02:02:18.380Z,81.85
2017-10-27T02:04:46.359Z,81.61
2017-10-27T02:07:14.283Z,81.71
2017-10-27T02:09:42.209Z,81.82
2017-10-27T02:12:10.524Z,81.55
2017-10-27T02:14:38.442Z,81.92
2017-10-27T02:17:06.778Z,81.84
2017-10-27T02:19:34.683Z,81.96
2017-10-27T02:22:03.021Z,81.43
2017-10-27T02:24:30.933Z,81.28
2017-10-27T02:26:58.857Z,81.15
2017-10-27T02:29:26.787Z,80.97
2017-10-27T02:31:54.721Z,80.76
2017-10-27T02:34:22.807Z,80.65
2017-10-27T02:36:51.117Z,80.67
2017-10-27T02:39:19.040Z,80.69
2017-10-27T02:41:46.949Z,80.54
2017-10-27T02:44:14.861Z,80.65
2017-10-27T02:46:42.819Z,80.89
2017-10-27T02:49:10.740Z,81.70
2017-10-27T02:51:39.067Z,81.42
2017-10-27T02:54:06.986Z,82.28
2017-10-27T02:56:35.316Z,82.86
2017-10-27T02:59:03.217Z,83.04
2017-10-27T03:01:31.534Z,83.06
2017-10-27T03:03:59.453Z,83.38
2017-10-27T03:06:27.460Z,83.56
2017-10-27T03:08:55.476Z,83.30
2017-10-27T03:11:23.464Z,83.23
2017-10-27T03:13:51.396Z,83.14
2017-10-27T03:16:19.401Z,83.32
2017-10-27T03:18:47.316Z,83.09
2017-10-27T03:21:15.241Z,82.87
2017-10-27T03:23:43.549Z,83.01
2017-10-27T03:26:11.585Z,83.12
2017-10-27T03:28:39.494Z,83.00
2017-10-27T03:31:07.449Z,82.69
2017-10-27T03:33:35.381Z,82.78
2017-10-27T03:36:03.301Z,82.61
2017-10-27T03:38:31.331Z,82.45
2017-10-27T03:40:59.678Z,83.06
2017-10-27T03:43:27.602Z,83.13
2017-10-27T03:45:55.535Z,82.95
2017-10-27T03:48:23.453Z,82.56
2017-10-27T03:50:51.464Z,82.83
2017-10-27T03:53:19.432Z,82.76
2017-10-27T03:55:47.361Z,82.81
2017-10-27T03:58:15.373Z,82.79
2017-10-27T04:00:43.308Z,82.44
2017-10-27T04:03:11.240Z,82.66
2017-10-27T04:05:39.552Z,82.66
2017-10-27T04:08:07.563Z,82.76
2017-10-27T04:10:35.487Z,82.72
2017-10-27T04:13:03.407Z,82.41
2017-10-27T04:15:31.325Z,82.24
2017-10-27T04:17:59.236Z,82.26
2017-10-27T04:20:27.168Z,82.52
2017-10-27T04:22:55.082Z,82.61
2017-10-27T04:25:23.586Z,82.50
2017-10-27T04:27:51.500Z,82.74
2017-10-27T04:30:19.484Z,82.78
2017-10-27T04:32:47.395Z,82.96
2017-10-27T04:35:15.317Z,83.18
2017-10-27T04:37:43.284Z,83.40
2017-10-27T04:40:11.233Z,83.30
2017-10-27T04:42:39.145Z,83.24
2017-10-27T04:45:07.465Z,83.04
2017-10-27T04:47:35.497Z,82.97
2017-10-27T04:50:03.463Z,82.85
2017-10-27T04:52:31.405Z,82.82
2017-10-27T04:54:59.330Z,82.79
2017-10-27T04:57:27.265Z,82.46
2017-10-27T04:59:55.736Z,82.57
2017-10-27T05:02:23.674Z,82.61
2017-10-27T05:04:51.604Z,82.85
2017-10-27T05:07:19.639Z,83.05
2017-10-27T05:09:47.560Z,82.87
2017-10-27T05:12:15.490Z,83.03
2017-10-27T05:14:43.425Z,83.27
2017-10-27T05:17:17.073Z,83.77
2017-10-27T05:19:50.427Z,84.68
2017-10-27T05:22:24.044Z,85.72
2017-10-27T05:24:51.970Z,86.55
2017-10-27T05:27:19.905Z,87.09
2017-10-27T05:29:48.224Z,87.25
2017-10-27T05:32:16.176Z,87.48
2017-10-27T05:34:44.121Z,87.67
2017-10-27T05:37:12.068Z,87.67
2017-10-27T05:39:39.984Z,87.42
2017-10-27T05:42:08.008Z,87.29
2017-10-27T05:44:35.926Z,86.86
2017-10-27T05:47:03.844Z,86.66
2017-10-27T05:49:32.509Z,86.34
2017-10-27T05:52:00.490Z,86.21
2017-10-27T05:54:28.403Z,85.99
2017-10-27T05:56:56.337Z,86.12
2017-10-27T05:59:24.642Z,85.83
2017-10-27T06:01:52.674Z,85.66
2017-10-27T06:04:20.639Z,85.33
2017-10-27T06:06:48.600Z,85.00
2017-10-27T06:09:16.581Z,84.44
2017-10-27T06:11:44.561Z,84.04
2017-10-27T06:14:12.933Z,84.47
2017-10-27T06:16:40.864Z,85.33
2017-10-27T06:19:08.865Z,85.07
2017-10-27T06:21:36.838Z,85.05
2017-10-27T06:24:04.771Z,85.48
2017-10-27T06:26:32.780Z,86.05
2017-10-27T06:29:00.700Z,85.82
2017-10-27T06:31:28.654Z,85.50
2017-10-27T06:33:56.570Z,85.91
2017-10-27T06:36:24.474Z,87.78
2017-10-27T06:38:52.402Z,88.38
2017-10-27T06:41:20.357Z,89.31
2017-10-27T06:43:48.284Z,88.46
2017-10-27T06:46:16.204Z,88.70
2017-10-27T06:48:44.118Z,85.93
2017-10-27T06:51:12.056Z,84.71
2017-10-27T06:53:39.997Z,85.79
2017-10-27T06:56:07.972Z,86.12
2017-10-27T06:58:35.968Z,86.13
2017-10-27T07:01:03.885Z,86.00
2017-10-27T07:03:31.906Z,86.06
2017-10-27T07:06:00.234Z,86.26
2017-10-27T07:08:28.190Z,86.83
2017-10-27T07:10:56.198Z,81.23
2017-10-27T07:13:24.283Z,78.29
2017-10-27T07:15:52.207Z,72.92
2017-10-27T07:18:20.125Z,68.58
2017-10-27T07:20:48.184Z,67.46
2017-10-27T07:23:16.102Z,64.24
2017-10-27T07:25:44.116Z,65.69
2017-10-27T07:28:12.095Z,68.66
2017-10-27T07:30:40.069Z,71.24
2017-10-27T07:33:07.975Z,73.77
2017-10-27T07:35:35.889Z,76.68
2017-10-27T07:38:03.859Z,77.45
2017-10-27T07:40:31.838Z,78.61
2017-10-27T07:42:59.766Z,78.45
2017-10-27T07:45:27.826Z,79.03
2017-10-27T07:47:55.747Z,79.26
2017-10-27T07:50:23.665Z,79.49
2017-10-27T07:52:51.584Z,79.72
2017-10-27T07:55:19.509Z,79.47
2017-10-27T07:57:47.444Z,79.04
2017-10-27T08:00:15.782Z,78.57
2017-10-27T08:02:43.703Z,78.06
2017-10-27T08:05:11.630Z,77.96
2017-10-27T08:07:39.555Z,77.96
2017-10-27T08:10:07.468Z,79.17
2017-10-27T08:12:35.383Z,79.30
2017-10-27T08:15:03.398Z,79.53
2017-10-27T08:17:31.366Z,79.89
2017-10-27T08:19:59.277Z,80.59
2017-10-27T08:22:27.181Z,80.25
2017-10-27T08:24:55.087Z,80.55
2017-10-27T08:27:23.007Z,80.42
2017-10-27T08:29:50.919Z,79.70
2017-10-27T08:32:18.829Z,79.06
2017-10-27T08:34:46.741Z,78.45
2017-10-27T08:37:14.679Z,78.25
2017-10-27T08:39:42.679Z,77.30
2017-10-27T08:42:22.424Z,77.23
2017-10-27T08:44:50.337Z,75.68
2017-10-27T08:47:18.248Z,74.64
2017-10-27T08:49:46.232Z,74.55
2017-10-27T08:52:14.145Z,75.17
2017-10-27T08:54:42.043Z,78.21
2017-10-27T08:57:09.968Z,80.08
2017-10-27T08:59:38.265Z,80.61
2017-10-27T09:02:06.286Z,79.01
2017-10-27T09:04:34.201Z,78.22
2017-10-27T09:07:02.184Z,78.27
2017-10-27T09:09:30.448Z,79.54
2017-10-27T09:11:58.465Z,79.48
2017-10-27T09:14:26.373Z,79.06
2017-10-27T09:16:54.298Z,79.73
2017-10-27T09:19:22.244Z,79.16
2017-10-27T09:21:50.176Z,78.50
2017-10-27T09:24:18.104Z,78.24
2017-10-27T09:26:46.026Z,78.14
2017-10-27T09:29:13.933Z,78.31
2017-10-27T09:31:41.849Z,79.43
2017-10-27T09:34:09.763Z,81.50
2017-10-27T09:36:37.741Z,83.11
2017-10-27T09:39:05.656Z,85.12
2017-10-27T09:41:33.573Z,84.54
2017-10-27T09:44:01.603Z,83.72
2017-10-27T09:46:29.513Z,83.03
2017-10-27T09:48:57.439Z,81.87
2017-10-27T09:51:25.454Z,82.34
2017-10-27T09:53:53.356Z,81.32
2017-10-27T09:56:21.295Z,78.80
2017-10-27T09:58:49.202Z,77.38
2017-10-27T10:01:17.136Z,77.62
2017-10-27T10:03:45.040Z,77.46
2017-10-27T10:06:12.987Z,77.13
2017-10-27T10:08:41.366Z,77.50
2017-10-27T10:11:09.312Z,76.73
2017-10-27T10:13:37.283Z,78.79
2017-10-27T10:16:05.198Z,79.22
2017-10-27T10:18:33.107Z,78.35
2017-10-27T10:21:01.012Z,77.99
2017-10-27T10:23:29.351Z,77.40
2017-10-27T10:25:57.427Z,77.38
2017-10-27T10:28:25.395Z,77.08
2017-10-27T10:30:53.334Z,76.52
2017-10-27T10:33:21.256Z,78.57
2017-10-27T10:35:49.179Z,78.21
2017-10-27T10:38:17.098Z,77.53
2017-10-27T10:40:45.416Z,76.73
2017-10-27T10:43:13.319Z,76.35
2017-10-27T10:45:41.238Z,75.66
2017-10-27T10:48:09.163Z,75.26
2017-10-27T10:50:37.176Z,75.96
2017-10-27T10:53:05.123Z,81.03
2017-10-27T10:55:33.427Z,83.44
2017-10-27T10:58:01.391Z,82.40
2017-10-27T11:00:29.299Z,82.21
2017-10-27T11:02:57.202Z,81.01
2017-10-27T11:05:25.552Z,81.46
2017-10-27T11:07:53.513Z,81.06
2017-10-27T11:10:21.484Z,81.17
2017-10-27T11:12:49.406Z,81.25
2017-10-27T11:15:17.420Z,81.10
2017-10-27T11:17:45.410Z,80.20
2017-10-27T11:20:13.360Z,80.21
2017-10-27T11:22:41.268Z,79.45
2017-10-27T11:25:09.627Z,77.92
2017-10-27T11:27:37.604Z,77.39
2017-10-27T11:30:05.960Z,77.11
2017-10-27T11:32:33.928Z,76.48
2017-10-27T11:35:01.838Z,76.56
2017-10-27T11:37:29.747Z,75.56
2017-10-27T11:39:57.740Z,74.54
2017-10-27T11:42:25.667Z,73.83
2017-10-27T11:44:53.581Z,73.80
2017-10-27T11:47:21.521Z,73.22
2017-10-27T11:49:49.509Z,73.53
2017-10-27T11:52:17.453Z,73.54
2017-10-27T11:54:45.396Z,72.75
2017-10-27T11:57:13.332Z,73.54
2017-10-27T11:59:41.690Z,73.42
2017-10-27T12:02:09.599Z,73.28
2017-10-27T12:04:37.556Z,73.50
2017-10-27T12:07:05.964Z,73.15
2017-10-27T12:09:33.876Z,74.07
2017-10-27T12:12:01.797Z,73.46
2017-10-27T12:14:29.824Z,73.45
2017-10-27T12:16:57.746Z,73.23
2017-10-27T12:19:25.658Z,73.58
2017-10-27T12:21:53.578Z,73.34
2017-10-27T12:24:21.494Z,73.79
2017-10-27T12:26:49.447Z,74.88
2017-10-27T12:29:17.770Z,76.50
2017-10-27T12:31:45.672Z,78.85
2017-10-27T12:34:13.591Z,80.99
2017-10-27T12:36:41.951Z,81.15
2017-10-27T12:39:09.851Z,82.39
2017-10-27T12:41:37.879Z,82.66
2017-10-27T12:44:05.775Z,82.58
2017-10-27T12:46:34.178Z,82.33
2017-10-27T12:49:02.094Z,81.83
2017-10-27T12:51:30.066Z,80.93
2017-10-27T12:53:58.019Z,79.82
2017-10-27T12:56:25.940Z,79.17
2017-10-27T12:58:53.848Z,79.36
2017-10-27T13:01:21.770Z,81.26
2017-10-27T13:03:49.688Z,79.24
2017-10-27T13:06:17.654Z,79.37
2017-10-27T13:08:45.638Z,78.53
2017-10-27T13:11:13.543Z,79.36
2017-10-27T13:13:41.457Z,79.34
2017-10-27T13:16:09.445Z,81.78
2017-10-27T13:18:37.356Z,83.50
2017-10-27T13:21:05.261Z,84.55
2017-10-27T13:23:33.179Z,85.87
2017-10-27T13:26:03.638Z,85.63
2017-10-27T13:28:41.457Z,86.57
2017-10-27T13:31:09.583Z,87.61
2017-10-27T13:33:37.890Z,88.99
2017-10-27T13:36:05.814Z,89.34
2017-10-27T13:38:34.142Z,90.72
2017-10-27T13:41:02.084Z,90.77
2017-10-27T13:43:29.996Z,91.09
2017-10-27T13:45:57.973Z,91.54
2017-10-27T13:48:25.967Z,92.04
2017-10-27T13:50:54.308Z,92.70
2017-10-27T13:53:23.125Z,92.56
2017-10-27T13:55:51.114Z,92.00
2017-10-27T13:58:19.472Z,92.54
2017-10-27T14:00:47.397Z,90.93
2017-10-27T14:03:15.302Z,91.83
2017-10-27T14:05:43.236Z,91.95
2017-10-27T14:08:11.140Z,92.15
2017-10-27T14:10:39.056Z,91.93
2017-10-27T14:13:06.964Z,91.27
2017-10-27T14:15:35.027Z,90.82
2017-10-27T14:18:03.020Z,91.45
2017-10-27T14:20:31.030Z,91.82
2017-10-27T14:22:58.931Z,92.46
2017-10-27T14:25:26.851Z,92.66
2017-10-27T14:29:52.657Z,90.63
2017-10-27T14:32:20.597Z,90.82
2017-10-27T14:34:48.516Z,90.79
2017-10-27T14:37:16.864Z,89.29
2017-10-27T14:40:31.622Z,88.18
2017-10-27T14:42:59.537Z,88.11
2017-10-27T14:45:27.551Z,86.47
2017-10-27T14:47:55.464Z,86.29
2017-10-27T14:53:28.561Z,86.29
2017-10-27T14:55:56.549Z,86.25
2017-10-27T14:58:24.453Z,85.55
2017-10-27T15:00:52.375Z,86.21
2017-10-27T15:03:20.299Z,86.30
2017-10-27T15:05:48.284Z,86.03
2017-10-27T15:08:16.193Z,86.20
2017-10-27T15:10:44.256Z,85.27
2017-10-27T15:13:12.605Z,84.90
2017-10-27T15:15:40.523Z,85.00
2017-10-27T15:18:08.838Z,84.35
2017-10-27T15:20:36.774Z,84.28
2017-10-27T15:23:05.128Z,84.13
2017-10-27T15:25:33.067Z,83.55
2017-10-27T15:28:00.995Z,81.81
2017-10-27T15:30:29.313Z,81.46
2017-10-27T15:32:57.240Z,81.21
2017-10-27T15:35:25.160Z,80.84
2017-10-27T15:37:53.067Z,80.71
2017-10-27T15:40:21.397Z,80.29
2017-10-27T15:42:49.381Z,80.32
2017-10-27T15:45:17.361Z,80.32
2017-10-27T15:47:45.268Z,79.67
2017-10-27T15:50:13.210Z,79.62
2017-10-27T15:52:41.516Z,79.37
2017-10-27T15:55:09.441Z,79.66
2017-10-27T15:57:37.367Z,78.50
2017-10-27T16:00:05.299Z,79.17
2017-10-27T16:02:33.620Z,79.04
2017-10-27T16:05:01.545Z,78.33
2017-10-27T16:07:29.888Z,78.39
2017-10-27T16:09:57.794Z,78.78
2017-10-27T16:12:26.110Z,77.94
2017-10-27T16:14:54.115Z,77.85
2017-10-27T16:17:22.115Z,77.90
2017-10-27T16:19:50.437Z,77.89
2017-10-27T16:22:18.421Z,77.40
2017-10-27T16:24:46.329Z,77.68
2017-10-27T16:27:14.667Z,77.39
2017-10-27T16:29:42.589Z,76.88
2017-10-27T16:32:10.505Z,77.39
2017-10-27T16:34:38.472Z,77.67
2017-10-27T16:37:06.393Z,76.67
2017-10-27T16:39:34.334Z,76.82
2017-10-27T16:42:02.693Z,76.72
2017-10-27T16:44:30.622Z,76.00
2017-10-27T16:46:58.525Z,75.97
2017-10-27T16:49:26.535Z,76.32
2017-10-27T16:51:54.876Z,76.43
2017-10-27T16:54:22.783Z,74.97
2017-10-27T16:56:50.705Z,75.99
2017-10-27T16:59:18.637Z,74.35
2017-10-27T17:01:46.548Z,73.88
2017-10-27T17:04:14.456Z,74.02
2017-10-27T17:06:42.386Z,73.63
2017-10-27T17:09:10.307Z,74.55
2017-10-27T17:11:38.229Z,74.86
2017-10-27T17:14:06.600Z,74.61
2017-10-27T17:16:34.525Z,74.38
2017-10-27T17:19:02.529Z,74.55
2017-10-27T17:21:30.453Z,74.39
2017-10-27T17:23:58.381Z,74.21
2017-10-27T17:26:26.325Z,74.32
2017-10-27T17:28:54.232Z,73.53
2017-10-27T17:31:22.544Z,74.21
2017-10-27T17:33:50.552Z,74.03
2017-10-27T17:36:18.470Z,73.73
2017-10-27T17:38:46.385Z,74.27
2017-10-27T17:41:14.300Z,73.89
2017-10-27T17:43:42.225Z,74.85
2017-10-27T17:46:10.163Z,74.65
2017-10-27T17:48:38.065Z,74.92
2017-10-27T17:51:06.040Z,74.72
2017-10-27T17:53:33.996Z,75.04
2017-10-27T17:56:01.964Z,75.38
2017-10-27T17:58:29.873Z,75.97
2017-10-27T18:00:57.788Z,76.00
2017-10-27T18:03:25.771Z,77.69
2017-10-27T18:05:53.756Z,77.12
2017-10-27T18:08:21.715Z,76.51
2017-10-27T18:10:49.640Z,76.76
2017-10-27T18:13:17.545Z,77.86
2017-10-27T18:15:45.885Z,76.71
2017-10-27T18:18:13.793Z,77.58
2017-10-27T18:20:41.790Z,76.92
2017-10-27T18:23:09.823Z,76.53
2017-10-27T18:25:38.136Z,77.08
2017-10-27T18:28:07.363Z,75.94
2017-10-27T18:30:35.636Z,76.35
2017-10-27T18:33:04.678Z,76.49
2017-10-27T18:35:32.930Z,77.16
2017-10-27T18:38:02.204Z,77.23
2017-10-27T18:40:31.108Z,77.10
2017-10-27T18:42:59.453Z,77.47
2017-10-27T18:45:28.672Z,77.43
2017-10-27T18:47:56.783Z,77.38
2017-10-27T18:50:25.132Z,77.93
2017-10-27T18:52:53.061Z,78.05
2017-10-27T18:55:21.412Z,78.08
2017-10-27T18:57:49.341Z,77.92
2017-10-27T19:00:17.258Z,78.39
2017-10-27T19:02:45.181Z,78.29
2017-10-27T19:05:13.101Z,78.12
2017-10-27T19:07:41.018Z,79.60
2017-10-27T19:10:08.937Z,77.31
2017-10-27T19:12:36.841Z,77.13
2017-10-27T19:15:04.864Z,77.36
2017-10-27T19:17:32.829Z,77.43
2017-10-27T19:20:00.742Z,77.32
2017-10-27T19:22:28.677Z,77.24
2017-10-27T19:24:56.592Z,77.63
2017-10-27T19:27:24.610Z,77.61
2017-10-27T19:29:52.560Z,77.58
2017-10-27T19:32:20.516Z,77.73
2017-10-27T19:34:48.507Z,77.25
2017-10-27T19:37:16.483Z,77.37
2017-10-27T19:39:44.391Z,77.46
2017-10-27T19:42:12.318Z,77.50
2017-10-27T19:44:40.228Z,77.39
2017-10-27T19:47:08.135Z,77.66
2017-10-27T19:49:36.069Z,77.39
2017-10-27T19:52:03.992Z,77.91
2017-10-27T19:54:31.967Z,78.25
2017-10-27T19:56:59.897Z,78.66
2017-10-27T19:59:27.828Z,78.94
2017-10-27T20:01:56.137Z,79.28
2017-10-27T20:04:24.160Z,79.35
2017-10-27T20:06:52.563Z,79.88
2017-10-27T20:09:20.638Z,80.21
2017-10-27T20:11:48.585Z,80.42
2017-10-27T20:14:16.897Z,80.89
2017-10-27T20:16:44.809Z,81.22
2017-10-27T20:19:12.714Z,81.40
2017-10-27T20:21:40.797Z,81.45
2017-10-27T20:24:08.706Z,81.78
2017-10-27T20:26:36.619Z,82.56
2017-10-27T20:29:04.562Z,82.48
2017-10-27T20:31:32.876Z,82.66
2017-10-27T20:34:00.775Z,82.62
2017-10-27T20:36:28.724Z,82.34
2017-10-27T20:38:56.799Z,82.43
2017-10-27T20:41:24.716Z,82.64
2017-10-27T20:46:44.112Z,82.66
2017-10-27T20:49:12.516Z,82.88
2017-10-27T20:51:40.691Z,82.87
2017-10-27T20:54:08.596Z,82.91
2017-10-27T20:56:36.508Z,83.36
2017-10-27T20:59:04.818Z,83.09
2017-10-27T21:01:32.958Z,83.37
2017-10-27T21:04:01.257Z,83.47
2017-10-27T21:06:29.161Z,83.93
2017-10-27T21:08:57.058Z,83.76
2017-10-27T21:11:25.378Z,83.83
2017-10-27T21:13:53.298Z,83.80
2017-10-27T21:16:21.203Z,83.74
2017-10-27T21:18:49.107Z,83.84
2017-10-27T21:21:17.377Z,83.56
2017-10-27T21:23:45.292Z,83.61
2017-10-27T21:26:13.591Z,83.74
2017-10-27T21:28:41.492Z,83.69
2017-10-27T21:31:09.402Z,83.57
2017-10-27T21:33:37.703Z,83.42
2017-10-27T21:36:05.602Z,83.33
2017-10-27T21:38:33.510Z,83.27
2017-10-27T21:41:01.807Z,83.20
2017-10-27T21:43:29.739Z,83.35
2017-10-27T21:45:57.684Z,83.38
2017-10-27T21:48:25.604Z,83.13
2017-10-27T21:50:53.519Z,84.33
